Time;durP1;ratioP1;P1;durP2;ratioP2;P2;SDS_P1;SDS_P2;PMS_P1;PMS_P2;Temp;Humidity;BMP_temperature;BMP_pressure;BME280_temperature;BME280_humidity;BME280_pressure;Samples;Min_cycle;Max_cycle;Signal;HPM_P1;HPM_P2
2023/01/15 00:02:16;;;;;;;0.30;0.30;;;;;;;;;;5074940;28;20205;-89
2023/01/15 00:04:44;;;;;;;0.20;0.20;;;;;;;;;;5074998;28;20228;-88
2023/01/15 00:07:12;;;;;;;0.55;0.55;;;;;;;;;;5074500;28;20197;-88
2023/01/15 00:09:39;;;;;;;0.50;0.50;;;;;;;;;;5072458;28;20221;-89
2023/01/15 00:12:07;;;;;;;0.40;0.40;;;;;;;;;;5072838;28;20229;-88
2023/01/15 00:14:34;;;;;;;0.80;0.40;;;;;;;;;;5072654;28;20248;-89
2023/01/15 00:17:02;;;;;;;0.20;0.20;;;;;;;;;;5075664;28;20638;-89
2023/01/15 00:19:31;;;;;;;0.20;0.20;;;;;;;;;;5075757;28;20229;-89
2023/01/15 00:21:58;;;;;;;0.30;0.30;;;;;;;;;;5076003;28;20235;-89
2023/01/15 00:29:57;;;;;;;0.45;0.35;;;;;;;;;;5075633;28;20246;-89
2023/01/15 00:32:26;;;;;;;0.20;0.20;;;;;;;;;;5075575;28;20217;-88
2023/01/15 00:34:55;;;;;;;0.28;0.28;;;;;;;;;;5075755;28;20220;-89
2023/01/15 00:37:23;;;;;;;0.30;0.30;;;;;;;;;;5075420;28;20235;-89
2023/01/15 00:39:50;;;;;;;0.20;0.20;;;;;;;;;;5075504;28;20236;-89
2023/01/15 00:42:18;;;;;;;0.25;0.20;;;;;;;;;;5075708;28;20232;-89
2023/01/15 00:44:46;;;;;;;0.40;0.40;;;;;;;;;;5075383;28;20213;-89
2023/01/15 00:47:14;;;;;;;0.20;0.20;;;;;;;;;;5075335;28;20193;-89
2023/01/15 00:49:41;;;;;;;0.30;0.30;;;;;;;;;;5074146;28;20213;-89
2023/01/15 00:52:11;;;;;;;0.20;0.20;;;;;;;;;;5075637;28;20225;-89
2023/01/15 00:54:38;;;;;;;0.75;0.40;;;;;;;;;;5075363;28;20249;-89
2023/01/15 00:57:06;;;;;;;0.40;0.40;;;;;;;;;;5075230;28;20236;-89
2023/01/15 00:59:33;;;;;;;0.32;0.30;;;;;;;;;;5080591;28;20261;-89
2023/01/15 01:02:01;;;;;;;0.30;0.30;;;;;;;;;;5095731;28;20283;-89
2023/01/15 01:04:28;;;;;;;0.30;0.30;;;;;;;;;;5095486;28;20704;-89
2023/01/15 01:06:56;;;;;;;0.25;0.25;;;;;;;;;;5095257;28;20296;-89
2023/01/15 01:09:25;;;;;;;0.30;0.30;;;;;;;;;;5094738;28;20302;-89
2023/01/15 01:15:34;;;;;;;0.40;0.35;;;;;;;;;;5093883;28;20207;-89
2023/01/15 01:18:02;;;;;;;0.50;0.50;;;;;;;;;;5094805;28;20283;-89
2023/01/15 01:20:30;;;;;;;0.50;0.50;;;;;;;;;;5094750;28;20250;-89
2023/01/15 01:22:57;;;;;;;0.30;0.30;;;;;;;;;;5095297;28;20284;-89
2023/01/15 01:25:26;;;;;;;0.55;0.55;;;;;;;;;;5094578;28;20316;-89
2023/01/15 01:27:54;;;;;;;0.50;0.50;;;;;;;;;;5094675;28;20713;-89
2023/01/15 01:30:21;;;;;;;0.40;0.40;;;;;;;;;;5081829;28;20253;-89
2023/01/15 01:32:49;;;;;;;0.60;0.60;;;;;;;;;;5074786;28;20283;-89
2023/01/15 01:35:17;;;;;;;0.30;0.30;;;;;;;;;;5074504;28;20657;-89
2023/01/15 01:37:48;;;;;;;0.25;0.25;;;;;;;;;;5074443;28;20237;-88
2023/01/15 01:40:17;;;;;;;1.17;1.10;;;;;;;;;;5074064;28;20287;-89
2023/01/15 01:42:46;;;;;;;0.77;0.57;;;;;;;;;;5074355;28;20802;-89
2023/01/15 01:45:24;;;;;;;0.88;0.40;;;;;;;;;;5074135;28;20264;-89
2023/01/15 01:47:52;;;;;;;0.40;0.40;;;;;;;;;;5074060;28;20189;-89
2023/01/15 01:50:20;;;;;;;0.30;0.30;;;;;;;;;;5073863;28;20312;-89
2023/01/15 01:52:52;;;;;;;0.57;0.55;;;;;;;;;;5074316;28;20284;-89
2023/01/15 01:55:21;;;;;;;0.38;0.38;;;;;;;;;;5074140;28;20651;-89
2023/01/15 01:57:52;;;;;;;0.93;0.60;;;;;;;;;;5073035;28;20645;-88
2023/01/15 02:00:20;;;;;;;0.52;0.52;;;;;;;;;;5073528;28;20224;-89
2023/01/15 02:02:49;;;;;;;0.60;0.60;;;;;;;;;;5073568;28;20287;-88
2023/01/15 02:05:28;;;;;;;0.60;0.60;;;;;;;;;;5073795;28;20231;-89
2023/01/15 02:07:55;;;;;;;0.47;0.47;;;;;;;;;;5073018;28;20596;-89
2023/01/15 02:10:23;;;;;;;0.47;0.47;;;;;;;;;;5073854;28;20637;-88
2023/01/15 02:12:58;;;;;;;0.47;0.40;;;;;;;;;;5073864;28;20250;-87
2023/01/15 02:15:31;;;;;;;0.30;0.30;;;;;;;;;;5073801;28;20316;-89
2023/01/15 02:18:06;;;;;;;0.35;0.35;;;;;;;;;;5073894;28;20710;-89
2023/01/15 02:20:39;;;;;;;0.50;0.50;;;;;;;;;;5073625;28;20193;-89
2023/01/15 02:23:33;;;;;;;0.40;0.40;;;;;;;;;;5073574;28;20216;-89
2023/01/15 02:26:36;;;;;;;0.47;0.47;;;;;;;;;;5073794;28;20586;-88
2023/01/15 02:29:10;;;;;;;0.40;0.40;;;;;;;;;;5056051;28;20224;-88
2023/01/15 02:31:40;;;;;;;0.43;0.43;;;;;;;;;;5073569;28;20303;-89
2023/01/15 02:34:12;;;;;;;0.73;0.63;;;;;;;;;;5073548;28;20224;-89
2023/01/15 02:36:43;;;;;;;0.35;0.35;;;;;;;;;;5073142;28;20276;-89
2023/01/15 02:39:27;;;;;;;2.13;0.63;;;;;;;;;;5072362;28;20178;-89
2023/01/15 02:42:01;;;;;;;0.40;0.40;;;;;;;;;;5073424;28;20288;-89
2023/01/15 02:44:32;;;;;;;0.40;0.40;;;;;;;;;;5072953;28;20213;-88
2023/01/15 02:47:00;;;;;;;0.60;0.60;;;;;;;;;;5073154;28;20185;-89
2023/01/15 02:49:28;;;;;;;0.32;0.32;;;;;;;;;;5073053;28;20311;-88
2023/01/15 02:52:01;;;;;;;0.65;0.65;;;;;;;;;;5072994;28;20201;-89
2023/01/15 02:54:34;;;;;;;0.47;0.47;;;;;;;;;;5073210;28;20250;-88
2023/01/15 02:57:03;;;;;;;0.40;0.40;;;;;;;;;;5073271;28;20260;-88
2023/01/15 02:59:39;;;;;;;1.98;0.60;;;;;;;;;;5071238;28;20228;-89
2023/01/15 03:02:10;;;;;;;0.43;0.43;;;;;;;;;;5073165;28;20191;-88
2023/01/15 03:04:43;;;;;;;0.40;0.40;;;;;;;;;;5072969;28;20255;-89
2023/01/15 03:07:17;;;;;;;0.32;0.30;;;;;;;;;;5072560;28;20685;-88
2023/01/15 03:09:45;;;;;;;0.52;0.52;;;;;;;;;;5072692;28;20292;-89
2023/01/15 03:12:18;;;;;;;0.50;0.50;;;;;;;;;;5073005;28;20686;-89
2023/01/15 03:14:55;;;;;;;0.57;0.57;;;;;;;;;;5072925;28;20308;-89
2023/01/15 03:17:26;;;;;;;0.40;0.40;;;;;;;;;;5072653;28;20223;-88
2023/01/15 03:19:58;;;;;;;0.30;0.30;;;;;;;;;;5072290;28;20717;-88
2023/01/15 03:22:30;;;;;;;0.40;0.40;;;;;;;;;;5073100;28;20223;-89
2023/01/15 03:25:01;;;;;;;0.52;0.52;;;;;;;;;;5072894;28;20274;-88
2023/01/15 03:27:29;;;;;;;0.40;0.40;;;;;;;;;;5072914;28;20282;-88
2023/01/15 03:30:01;;;;;;;3.08;0.60;;;;;;;;;;5072704;28;20266;-88
2023/01/15 03:32:30;;;;;;;0.90;0.90;;;;;;;;;;5072675;28;20208;-89
2023/01/15 03:34:59;;;;;;;0.50;0.50;;;;;;;;;;5072629;28;20268;-89
2023/01/15 03:37:27;;;;;;;0.50;0.50;;;;;;;;;;5072937;28;20236;-88
2023/01/15 03:39:56;;;;;;;0.50;0.50;;;;;;;;;;5072460;28;20201;-88
2023/01/15 03:42:35;;;;;;;2.17;0.45;;;;;;;;;;5072493;28;20722;-88
2023/01/15 03:45:11;;;;;;;0.30;0.30;;;;;;;;;;5072831;28;20259;-89
2023/01/15 03:47:50;;;;;;;0.45;0.45;;;;;;;;;;5072709;28;20268;-89
2023/01/15 03:50:22;;;;;;;0.40;0.40;;;;;;;;;;5075392;28;20681;-89
2023/01/15 03:52:59;;;;;;;0.47;0.47;;;;;;;;;;5076687;28;20186;-89
2023/01/15 03:55:32;;;;;;;0.20;0.20;;;;;;;;;;5076539;28;20252;-88
2023/01/15 03:58:02;;;;;;;0.30;0.30;;;;;;;;;;5075267;28;20192;-89
2023/01/15 04:00:35;;;;;;;0.32;0.32;;;;;;;;;;5076613;28;20315;-88
2023/01/15 04:03:06;;;;;;;0.40;0.40;;;;;;;;;;5076065;28;20211;-88
2023/01/15 04:05:35;;;;;;;0.20;0.20;;;;;;;;;;5076360;28;20216;-88
2023/01/15 04:08:04;;;;;;;1.35;0.30;;;;;;;;;;5075947;28;20197;-89
2023/01/15 04:10:32;;;;;;;0.30;0.30;;;;;;;;;;5076166;28;20256;-88
2023/01/15 04:12:59;;;;;;;0.30;0.30;;;;;;;;;;5075803;28;20200;-88
2023/01/15 04:15:27;;;;;;;0.30;0.30;;;;;;;;;;5076039;28;20263;-89
2023/01/15 04:17:56;;;;;;;0.35;0.35;;;;;;;;;;5075810;28;20737;-89
2023/01/15 04:20:23;;;;;;;0.40;0.40;;;;;;;;;;5076063;28;20292;-88
2023/01/15 04:22:51;;;;;;;0.30;0.30;;;;;;;;;;5076198;28;20284;-88
2023/01/15 04:25:18;;;;;;;0.30;0.30;;;;;;;;;;5076043;28;20311;-88
2023/01/15 04:27:46;;;;;;;0.32;0.32;;;;;;;;;;5075907;28;20633;-88
2023/01/15 04:30:16;;;;;;;0.35;0.35;;;;;;;;;;5075145;28;20233;-86
2023/01/15 04:32:43;;;;;;;0.30;0.30;;;;;;;;;;5075776;28;20704;-88
2023/01/15 04:35:12;;;;;;;0.30;0.30;;;;;;;;;;5075738;28;20653;-88
2023/01/15 04:38:04;;;;;;;0.28;0.28;;;;;;;;;;5075345;28;20284;-88
2023/01/15 04:46:12;;;;;;;0.40;0.40;;;;;;;;;;5013189;28;20195;-88
2023/01/15 04:48:40;;;;;;;0.40;0.40;;;;;;;;;;5060187;28;20229;-88
2023/01/15 04:51:09;;;;;;;0.10;0.10;;;;;;;;;;5075378;28;20227;-88
2023/01/15 04:53:36;;;;;;;0.30;0.30;;;;;;;;;;5075727;28;20703;-88
2023/01/15 04:56:05;;;;;;;0.32;0.32;;;;;;;;;;5075532;28;20240;-88
2023/01/15 04:58:33;;;;;;;0.45;0.40;;;;;;;;;;5073967;28;20200;-88
2023/01/15 05:01:01;;;;;;;0.43;0.43;;;;;;;;;;5092878;28;20757;-88
2023/01/15 05:03:29;;;;;;;0.85;0.55;;;;;;;;;;5095350;28;20307;-88
2023/01/15 05:06:00;;;;;;;0.90;0.40;;;;;;;;;;5095350;28;20712;-87
2023/01/15 05:08:30;;;;;;;0.30;0.30;;;;;;;;;;5094817;28;20207;-88
2023/01/15 05:11:00;;;;;;;0.30;0.30;;;;;;;;;;5095195;28;20681;-88
2023/01/15 05:13:28;;;;;;;0.73;0.40;;;;;;;;;;5095338;28;20225;-88
2023/01/15 05:15:56;;;;;;;0.20;0.20;;;;;;;;;;5095371;28;20250;-88
2023/01/15 05:18:24;;;;;;;0.45;0.45;;;;;;;;;;5095008;28;20246;-87
2023/01/15 05:20:51;;;;;;;0.20;0.20;;;;;;;;;;5095262;28;20721;-88
2023/01/15 05:23:19;;;;;;;0.30;0.30;;;;;;;;;;5095478;28;20196;-88
2023/01/15 05:25:47;;;;;;;0.50;0.50;;;;;;;;;;5095353;28;20236;-88
2023/01/15 05:28:15;;;;;;;0.57;0.57;;;;;;;;;;5094429;28;20257;-88
2023/01/15 05:30:42;;;;;;;0.43;0.43;;;;;;;;;;5079248;28;20764;-88
2023/01/15 05:33:10;;;;;;;0.50;0.50;;;;;;;;;;5074620;28;20293;-88
2023/01/15 05:35:37;;;;;;;0.93;0.73;;;;;;;;;;5074537;28;20292;-88
2023/01/15 05:38:05;;;;;;;0.43;0.43;;;;;;;;;;5074467;28;20625;-88
2023/01/15 05:40:33;;;;;;;0.47;0.47;;;;;;;;;;5074375;28;20201;-87
2023/01/15 05:43:02;;;;;;;0.40;0.40;;;;;;;;;;5074378;28;20269;-88
2023/01/15 05:45:29;;;;;;;0.28;0.28;;;;;;;;;;5074668;28;20201;-87
2023/01/15 05:47:57;;;;;;;0.43;0.43;;;;;;;;;;5074241;28;20287;-88
2023/01/15 05:50:24;;;;;;;0.50;0.50;;;;;;;;;;5074486;28;20307;-88
2023/01/15 05:52:52;;;;;;;0.80;0.80;;;;;;;;;;5074181;28;20315;-88
2023/01/15 05:55:19;;;;;;;0.73;0.50;;;;;;;;;;5073785;28;20307;-88
2023/01/15 05:57:49;;;;;;;0.32;0.32;;;;;;;;;;5074172;28;20330;-88
2023/01/15 06:00:20;;;;;;;0.30;0.30;;;;;;;;;;5073650;28;20232;-89
2023/01/15 06:02:50;;;;;;;0.50;0.47;;;;;;;;;;5074239;28;20235;-88
2023/01/15 06:05:19;;;;;;;0.60;0.60;;;;;;;;;;5074190;28;20319;-88
2023/01/15 06:07:51;;;;;;;1.17;0.30;;;;;;;;;;5074401;28;20197;-88
2023/01/15 06:10:19;;;;;;;0.60;0.60;;;;;;;;;;5073802;28;20604;-89
2023/01/15 06:12:47;;;;;;;0.40;0.40;;;;;;;;;;5072856;28;20288;-88
2023/01/15 06:15:14;;;;;;;0.35;0.35;;;;;;;;;;5073886;28;20255;-88
2023/01/15 06:17:43;;;;;;;0.45;0.45;;;;;;;;;;5074002;28;20727;-88
2023/01/15 06:20:12;;;;;;;0.43;0.43;;;;;;;;;;5074701;28;20243;-87
2023/01/15 06:22:40;;;;;;;0.32;0.32;;;;;;;;;;5074729;28;20605;-88
2023/01/15 06:25:08;;;;;;;0.30;0.30;;;;;;;;;;5074464;28;20764;-87
2023/01/15 06:27:35;;;;;;;0.40;0.40;;;;;;;;;;5073651;28;20238;-88
2023/01/15 06:30:04;;;;;;;0.50;0.50;;;;;;;;;;5073481;28;20284;-88
2023/01/15 06:32:32;;;;;;;0.35;0.35;;;;;;;;;;5073729;28;20232;-88
2023/01/15 06:35:01;;;;;;;0.40;0.40;;;;;;;;;;5073911;28;20307;-88
2023/01/15 06:37:28;;;;;;;0.30;0.30;;;;;;;;;;5073835;28;20205;-88
2023/01/15 06:39:56;;;;;;;0.40;0.40;;;;;;;;;;5073570;28;20572;-88
2023/01/15 06:47:55;;;;;;;0.40;0.40;;;;;;;;;;5073430;28;20188;-88
2023/01/15 06:50:24;;;;;;;0.60;0.40;;;;;;;;;;5073918;28;20558;-87
2023/01/15 06:52:52;;;;;;;0.40;0.40;;;;;;;;;;5073858;28;20307;-87
2023/01/15 06:55:19;;;;;;;0.47;0.47;;;;;;;;;;5073607;28;20688;-87
2023/01/15 06:57:47;;;;;;;0.60;0.60;;;;;;;;;;5072886;28;20209;-88
2023/01/15 07:00:16;;;;;;;0.30;0.30;;;;;;;;;;5073225;28;20611;-88
2023/01/15 07:02:43;;;;;;;1.10;0.85;;;;;;;;;;5073254;28;20751;-88
2023/01/15 07:05:11;;;;;;;0.50;0.50;;;;;;;;;;5073091;28;20217;-88
2023/01/15 07:07:40;;;;;;;1.88;0.70;;;;;;;;;;5073397;28;20642;-88
2023/01/15 07:10:09;;;;;;;0.60;0.60;;;;;;;;;;5073192;28;20612;-89
2023/01/15 07:12:37;;;;;;;0.65;0.38;;;;;;;;;;5073468;28;20332;-89
2023/01/15 07:15:05;;;;;;;0.52;0.52;;;;;;;;;;5073149;28;20308;-89
2023/01/15 07:17:33;;;;;;;0.30;0.30;;;;;;;;;;5073710;28;20251;-88
2023/01/15 07:20:00;;;;;;;0.50;0.50;;;;;;;;;;5073057;28;20235;-88
2023/01/15 07:22:28;;;;;;;0.60;0.60;;;;;;;;;;5073295;28;20254;-88
2023/01/15 07:24:57;;;;;;;0.30;0.30;;;;;;;;;;5072884;28;20733;-88
2023/01/15 07:27:24;;;;;;;0.68;0.50;;;;;;;;;;5073226;28;20232;-88
2023/01/15 07:29:52;;;;;;;0.60;0.60;;;;;;;;;;5073144;28;20689;-89
2023/01/15 07:32:20;;;;;;;1.98;0.85;;;;;;;;;;5073283;28;20304;-88
2023/01/15 07:34:47;;;;;;;1.77;0.40;;;;;;;;;;5073565;28;20252;-88
2023/01/15 07:37:15;;;;;;;0.35;0.35;;;;;;;;;;5073554;28;20236;-88
2023/01/15 07:39:42;;;;;;;0.50;0.50;;;;;;;;;;5072778;28;20282;-88
2023/01/15 07:50:27;;;;;;;0.68;0.68;;;;;;;;;;5072657;28;20726;-89
2023/01/15 07:52:54;;;;;;;0.68;0.68;;;;;;;;;;5072491;28;20632;-89
2023/01/15 07:55:22;;;;;;;0.30;0.30;;;;;;;;;;5072396;28;20244;-89
2023/01/15 07:57:52;;;;;;;0.60;0.60;;;;;;;;;;5072305;28;20673;-88
2023/01/15 08:00:23;;;;;;;0.50;0.50;;;;;;;;;;5071742;28;20548;-89
2023/01/15 08:02:50;;;;;;;0.65;0.65;;;;;;;;;;5072402;28;20221;-89
2023/01/15 08:05:18;;;;;;;0.50;0.50;;;;;;;;;;5072809;28;20217;-88
2023/01/15 08:07:49;;;;;;;0.57;0.57;;;;;;;;;;5072377;28;20229;-88
2023/01/15 08:10:17;;;;;;;0.73;0.73;;;;;;;;;;5072814;28;20185;-88
2023/01/15 08:15:33;;;;;;;0.50;0.50;;;;;;;;;;5072603;28;20251;-88
2023/01/15 08:18:01;;;;;;;0.50;0.50;;;;;;;;;;5072940;28;20661;-89
2023/01/15 08:20:28;;;;;;;0.40;0.40;;;;;;;;;;5071877;28;20232;-88
2023/01/15 08:22:56;;;;;;;0.75;0.60;;;;;;;;;;5072706;28;20621;-89
2023/01/15 08:25:25;;;;;;;0.45;0.45;;;;;;;;;;5073113;28;20312;-89
2023/01/15 08:27:54;;;;;;;0.95;0.73;;;;;;;;;;5072218;28;20194;-88
2023/01/15 08:30:25;;;;;;;0.93;0.57;;;;;;;;;;5073050;28;20240;-89
2023/01/15 08:33:01;;;;;;;0.60;0.60;;;;;;;;;;5072620;28;20323;-88
2023/01/15 08:35:29;;;;;;;0.50;0.50;;;;;;;;;;5072678;28;20217;-88
2023/01/15 08:37:56;;;;;;;1.52;0.65;;;;;;;;;;5077255;28;20209;-88
2023/01/15 08:40:24;;;;;;;0.50;0.50;;;;;;;;;;5077161;28;20229;-88
2023/01/15 08:42:51;;;;;;;0.75;0.60;;;;;;;;;;5077033;28;20233;-89
2023/01/15 08:45:19;;;;;;;0.60;0.60;;;;;;;;;;5076741;28;20252;-89
2023/01/15 08:47:46;;;;;;;0.63;0.60;;;;;;;;;;5077009;28;20304;-88
2023/01/15 08:50:16;;;;;;;0.98;0.80;;;;;;;;;;5076754;28;20629;-89
2023/01/15 08:52:43;;;;;;;0.88;0.68;;;;;;;;;;5076410;28;20220;-89
2023/01/15 08:55:11;;;;;;;0.50;0.50;;;;;;;;;;5076411;28;20331;-88
2023/01/15 08:57:38;;;;;;;1.10;0.45;;;;;;;;;;5076501;28;20263;-89
2023/01/15 09:00:09;;;;;;;0.55;0.55;;;;;;;;;;5075643;28;20209;-89
2023/01/15 09:02:36;;;;;;;0.50;0.50;;;;;;;;;;5076743;28;20255;-88
2023/01/15 09:05:04;;;;;;;0.93;0.70;;;;;;;;;;5075984;28;20251;-89
2023/01/15 09:07:34;;;;;;;1.45;0.40;;;;;;;;;;5076279;28;20193;-89
2023/01/15 09:10:01;;;;;;;0.60;0.60;;;;;;;;;;5075805;28;20208;-88
2023/01/15 09:12:29;;;;;;;0.82;0.82;;;;;;;;;;5076188;28;20247;-88
2023/01/15 09:14:56;;;;;;;0.93;0.63;;;;;;;;;;5075460;28;20240;-87
2023/01/15 09:17:24;;;;;;;1.15;1.05;;;;;;;;;;5075823;28;20231;-87
2023/01/15 09:19:52;;;;;;;0.50;0.50;;;;;;;;;;5075738;28;20704;-88
2023/01/15 09:22:19;;;;;;;2.03;1.25;;;;;;;;;;5075209;28;20193;-88
2023/01/15 09:25:10;;;;;;;1.10;1.00;;;;;;;;;;5075621;28;20736;-88
2023/01/15 09:27:38;;;;;;;2.15;1.00;;;;;;;;;;5075573;28;20268;-88
2023/01/15 09:30:07;;;;;;;1.60;0.68;;;;;;;;;;5075228;28;20291;-86
2023/01/15 09:32:34;;;;;;;0.60;0.60;;;;;;;;;;5075711;28;20312;-88
2023/01/15 09:35:02;;;;;;;0.55;0.50;;;;;;;;;;5075530;28;20252;-88
2023/01/15 09:37:30;;;;;;;0.50;0.50;;;;;;;;;;5075755;28;20205;-88
2023/01/15 09:39:57;;;;;;;1.17;0.80;;;;;;;;;;5075461;28;20197;-89
2023/01/15 09:42:40;;;;;;;0.88;0.88;;;;;;;;;;5075116;28;20260;-89
2023/01/15 09:45:25;;;;;;;0.80;0.80;;;;;;;;;;5074724;28;20300;-89
2023/01/15 09:48:22;;;;;;;1.90;0.80;;;;;;;;;;5072405;28;20201;-89
2023/01/15 09:51:03;;;;;;;1.55;0.57;;;;;;;;;;5074324;28;20231;-89
2023/01/15 09:54:22;;;;;;;0.43;0.43;;;;;;;;;;5074459;28;20319;-90
2023/01/15 09:56:50;;;;;;;0.57;0.57;;;;;;;;;;5061080;28;20197;-89
2023/01/15 09:59:27;;;;;;;1.15;0.63;;;;;;;;;;5074616;28;20276;-89
2023/01/15 10:01:55;;;;;;;0.50;0.50;;;;;;;;;;5074296;28;20673;-89
2023/01/15 10:04:34;;;;;;;0.65;0.65;;;;;;;;;;5072052;28;20303;-89
2023/01/15 10:07:09;;;;;;;0.85;0.57;;;;;;;;;;5073005;28;20262;-89
2023/01/15 10:09:40;;;;;;;1.40;0.73;;;;;;;;;;5073743;28;20227;-89
2023/01/15 10:15:15;;;;;;;0.50;0.50;;;;;;;;;;5073261;28;20330;-89
2023/01/15 10:21:32;;;;;;;0.55;0.50;;;;;;;;;;5073513;28;20888;-88
2023/01/15 10:24:05;;;;;;;0.70;0.70;;;;;;;;;;5073180;28;20307;-88
2023/01/15 10:26:37;;;;;;;0.80;0.57;;;;;;;;;;5073717;28;20586;-88
2023/01/15 10:29:15;;;;;;;0.55;0.40;;;;;;;;;;5073113;28;20394;-88
2023/01/15 10:31:56;;;;;;;0.73;0.55;;;;;;;;;;5073455;28;20208;-89
2023/01/15 10:35:19;;;;;;;3.13;1.25;;;;;;;;;;5073626;28;20231;-87
2023/01/15 10:37:50;;;;;;;0.60;0.60;;;;;;;;;;5073028;28;20200;-88
2023/01/15 10:40:53;;;;;;;1.33;1.23;;;;;;;;;;5073359;28;20628;-87
2023/01/15 10:43:25;;;;;;;4.30;2.92;;;;;;;;;;5072963;28;20211;-87
2023/01/15 10:45:56;;;;;;;3.30;2.95;;;;;;;;;;5073502;28;20688;-88
2023/01/15 10:48:31;;;;;;;1.40;1.30;;;;;;;;;;5072928;28;20240;-89
2023/01/15 10:51:04;;;;;;;1.30;1.20;;;;;;;;;;5073150;28;20264;-88
2023/01/15 10:53:37;;;;;;;1.63;1.52;;;;;;;;;;5072818;28;20221;-88
2023/01/15 10:56:11;;;;;;;4.57;2.85;;;;;;;;;;5072862;28;20251;-88
2023/01/15 10:58:41;;;;;;;2.20;2.05;;;;;;;;;;5073257;28;20200;-88
2023/01/15 11:01:15;;;;;;;1.52;1.27;;;;;;;;;;5074336;28;20583;-88
2023/01/15 11:03:45;;;;;;;1.27;1.17;;;;;;;;;;5074546;28;20652;-88
2023/01/15 11:06:16;;;;;;;0.93;0.90;;;;;;;;;;5074083;28;20269;-88
2023/01/15 11:08:47;;;;;;;1.05;1.05;;;;;;;;;;5073803;28;20297;-87
2023/01/15 11:19:56;;;;;;;0.60;0.60;;;;;;;;;;5173713;27;20201;-89
2023/01/15 11:22:26;;;;;;;1.45;0.73;;;;;;;;;;5173632;27;20276;-89
2023/01/15 11:24:57;;;;;;;0.57;0.57;;;;;;;;;;5173064;27;20224;-89
2023/01/15 11:27:28;;;;;;;0.40;0.40;;;;;;;;;;5173779;27;20234;-88
2023/01/15 11:29:59;;;;;;;1.55;1.10;;;;;;;;;;5173537;27;20178;-89
2023/01/15 11:32:31;;;;;;;0.50;0.50;;;;;;;;;;5173521;27;20718;-88
2023/01/15 11:35:01;;;;;;;1.92;0.60;;;;;;;;;;5172172;27;20242;-88
2023/01/15 11:37:30;;;;;;;0.90;0.90;;;;;;;;;;5172007;27;20202;-89
2023/01/15 11:40:04;;;;;;;0.75;0.50;;;;;;;;;;5171468;27;20246;-89
2023/01/15 11:51:07;;;;;;;1.27;0.68;;;;;;;;;;5172403;27;20281;-88
2023/01/15 11:53:39;;;;;;;0.75;0.65;;;;;;;;;;5171994;27;20222;-88
2023/01/15 11:56:11;;;;;;;0.52;0.52;;;;;;;;;;5172063;27;20174;-89
2023/01/15 11:58:43;;;;;;;1.30;0.70;;;;;;;;;;5171852;27;20221;-88
2023/01/15 12:01:17;;;;;;;0.60;0.60;;;;;;;;;;5192465;27;20989;-88
2023/01/15 12:03:45;;;;;;;0.98;0.50;;;;;;;;;;5192382;27;20752;-89
2023/01/15 12:06:14;;;;;;;0.55;0.50;;;;;;;;;;5191855;27;20249;-88
2023/01/15 12:08:49;;;;;;;0.60;0.50;;;;;;;;;;5191838;27;20267;-88
2023/01/15 12:11:32;;;;;;;0.50;0.50;;;;;;;;;;5192023;27;20200;-88
2023/01/15 12:14:31;;;;;;;0.98;0.98;;;;;;;;;;5191369;27;20311;-87
2023/01/15 12:17:05;;;;;;;1.38;0.65;;;;;;;;;;5191797;27;20623;-88
2023/01/15 12:19:39;;;;;;;0.95;0.70;;;;;;;;;;5191773;27;20216;-87
2023/01/15 12:22:23;;;;;;;1.13;0.60;;;;;;;;;;5192075;27;20177;-88
2023/01/15 12:25:19;;;;;;;0.68;0.60;;;;;;;;;;5182796;27;20213;-88
2023/01/15 12:27:57;;;;;;;2.22;1.13;;;;;;;;;;5178363;27;20529;-88
2023/01/15 12:30:33;;;;;;;0.40;0.40;;;;;;;;;;5178131;27;20702;-88
2023/01/15 12:33:15;;;;;;;0.90;0.70;;;;;;;;;;5177476;27;20221;-87
2023/01/15 12:35:46;;;;;;;1.25;0.73;;;;;;;;;;5177734;27;20308;-88
2023/01/15 12:38:20;;;;;;;1.35;0.80;;;;;;;;;;5177798;27;20273;-87
2023/01/15 12:40:51;;;;;;;1.05;0.70;;;;;;;;;;5177861;27;20264;-87
2023/01/15 12:46:15;;;;;;;0.70;0.70;;;;;;;;;;5177809;27;20185;-87
2023/01/15 12:48:50;;;;;;;1.65;0.68;;;;;;;;;;5177398;27;20193;-88
2023/01/15 12:51:25;;;;;;;0.73;0.73;;;;;;;;;;5177339;27;20657;-88
2023/01/15 12:53:57;;;;;;;1.27;0.82;;;;;;;;;;5177013;27;20257;-89
2023/01/15 12:56:29;;;;;;;1.05;0.90;;;;;;;;;;5176518;27;20245;-89
2023/01/15 12:59:01;;;;;;;1.77;0.70;;;;;;;;;;5177150;27;20189;-87
2023/01/15 13:01:35;;;;;;;3.78;2.25;;;;;;;;;;5176979;27;20174;-87
2023/01/15 13:04:17;;;;;;;2.25;0.80;;;;;;;;;;5176496;27;20221;-88
2023/01/15 13:06:49;;;;;;;0.90;0.50;;;;;;;;;;5176952;27;20182;-87
2023/01/15 13:09:30;;;;;;;1.08;0.80;;;;;;;;;;5176716;27;20189;-87
2023/01/15 13:11:58;;;;;;;6.68;1.42;;;;;;;;;;5177129;27;20226;-87
2023/01/15 13:14:25;;;;;;;0.70;0.70;;;;;;;;;;5176689;27;20260;-87
2023/01/15 13:16:58;;;;;;;0.65;0.65;;;;;;;;;;5177265;27;20695;-87
2023/01/15 13:19:38;;;;;;;2.30;0.70;;;;;;;;;;5176254;27;20199;-88
2023/01/15 13:22:11;;;;;;;3.20;1.85;;;;;;;;;;5176572;27;20260;-87
2023/01/15 13:25:30;;;;;;;1.08;0.80;;;;;;;;;;5176942;27;20694;-88
2023/01/15 13:28:13;;;;;;;2.15;1.00;;;;;;;;;;5150317;27;20265;-89
2023/01/15 13:30:53;;;;;;;0.93;0.90;;;;;;;;;;5176971;27;20572;-87
2023/01/15 13:33:27;;;;;;;0.70;0.70;;;;;;;;;;5175780;27;20596;-87
2023/01/15 13:36:05;;;;;;;0.95;0.70;;;;;;;;;;5175394;27;20276;-87
2023/01/15 13:38:39;;;;;;;1.48;0.77;;;;;;;;;;5176329;27;20277;-87
2023/01/15 13:41:08;;;;;;;0.95;0.80;;;;;;;;;;5175921;27;20202;-87
2023/01/15 13:43:39;;;;;;;1.73;0.85;;;;;;;;;;5175790;27;20222;-87
2023/01/15 13:46:09;;;;;;;2.75;0.90;;;;;;;;;;5176262;27;20351;-87
2023/01/15 13:48:43;;;;;;;2.13;1.58;;;;;;;;;;5176492;27;20236;-88
2023/01/15 13:51:27;;;;;;;1.75;1.05;;;;;;;;;;5176906;27;20217;-87
2023/01/15 13:53:56;;;;;;;1.90;0.80;;;;;;;;;;5176491;27;20222;-87
2023/01/15 13:56:29;;;;;;;2.78;1.17;;;;;;;;;;5177209;27;20606;-88
2023/01/15 13:58:58;;;;;;;2.83;0.80;;;;;;;;;;5177126;27;20201;-88
2023/01/15 14:01:32;;;;;;;3.20;1.38;;;;;;;;;;5176824;27;20285;-88
2023/01/15 14:04:04;;;;;;;1.02;1.00;;;;;;;;;;5176660;27;20225;-87
2023/01/15 14:06:45;;;;;;;2.03;0.70;;;;;;;;;;5177206;27;20601;-88
2023/01/15 14:09:14;;;;;;;1.00;0.93;;;;;;;;;;5176658;27;20217;-87
2023/01/15 14:12:03;;;;;;;1.83;1.05;;;;;;;;;;5177429;27;20201;-87
2023/01/15 14:15:17;;;;;;;1.23;1.05;;;;;;;;;;5177138;27;20245;-88
2023/01/15 14:18:14;;;;;;;3.25;0.95;;;;;;;;;;5136654;27;20750;-90
2023/01/15 14:20:59;;;;;;;2.45;0.70;;;;;;;;;;5155189;27;20639;-89
2023/01/15 14:23:53;;;;;;;1.13;0.90;;;;;;;;;;5156539;27;20268;-85
2023/01/15 14:26:31;;;;;;;1.00;1.00;;;;;;;;;;5156324;27;20222;-88
2023/01/15 14:29:43;;;;;;;1.52;0.60;;;;;;;;;;5156378;27;20261;-87
2023/01/15 14:32:14;;;;;;;0.75;0.70;;;;;;;;;;5155587;27;20646;-87
2023/01/15 14:34:42;;;;;;;2.63;0.85;;;;;;;;;;5155746;27;20309;-88
2023/01/15 14:37:25;;;;;;;0.65;0.65;;;;;;;;;;5155153;27;20210;-88
2023/01/15 14:39:57;;;;;;;0.98;0.70;;;;;;;;;;5154838;27;20654;-88
2023/01/15 14:45:24;;;;;;;2.38;0.95;;;;;;;;;;5154729;27;20216;-87
2023/01/15 14:47:54;;;;;;;1.40;0.85;;;;;;;;;;5154672;27;20343;-88
2023/01/15 14:50:30;;;;;;;0.85;0.80;;;;;;;;;;5154942;27;20202;-87
2023/01/15 14:53:04;;;;;;;1.77;0.70;;;;;;;;;;5154950;27;20194;-88
2023/01/15 14:55:34;;;;;;;4.47;0.90;;;;;;;;;;5155305;27;20275;-87
2023/01/15 14:58:14;;;;;;;6.85;1.30;;;;;;;;;;5155259;27;20198;-88
2023/01/15 15:00:51;;;;;;;2.10;1.00;;;;;;;;;;5154939;27;20212;-87
2023/01/15 15:03:22;;;;;;;1.33;1.10;;;;;;;;;;5155351;27;20854;-87
2023/01/15 15:05:50;;;;;;;3.17;1.70;;;;;;;;;;5155554;27;20265;-88
2023/01/15 15:08:19;;;;;;;1.42;1.13;;;;;;;;;;5155435;27;20233;-87
2023/01/15 15:10:54;;;;;;;0.85;0.80;;;;;;;;;;5155116;27;20535;-88
2023/01/15 15:13:29;;;;;;;1.70;1.52;;;;;;;;;;5155325;27;20209;-87
2023/01/15 15:16:04;;;;;;;0.80;0.80;;;;;;;;;;5154269;27;20445;-87
2023/01/15 15:18:35;;;;;;;6.18;1.55;;;;;;;;;;5155045;27;20285;-87
2023/01/15 15:21:07;;;;;;;1.20;0.98;;;;;;;;;;5154725;27;20198;-88
2023/01/15 15:23:42;;;;;;;1.48;1.38;;;;;;;;;;5154343;27;20245;-87
2023/01/15 15:26:24;;;;;;;3.67;1.00;;;;;;;;;;5154805;27;20217;-87
2023/01/15 15:28:59;;;;;;;1.33;1.23;;;;;;;;;;5154327;27;20198;-88
2023/01/15 15:31:28;;;;;;;2.53;1.00;;;;;;;;;;5154622;27;20190;-87
2023/01/15 15:33:57;;;;;;;2.25;0.90;;;;;;;;;;5154542;27;20242;-87
2023/01/15 15:36:26;;;;;;;1.50;1.13;;;;;;;;;;5154395;27;20307;-88
2023/01/15 15:38:55;;;;;;;10.18;1.65;;;;;;;;;;5154448;27;20800;-88
2023/01/15 15:50:13;;;;;;;0.80;0.80;;;;;;;;;;5134152;27;20206;-87
2023/01/15 15:52:45;;;;;;;0.82;0.82;;;;;;;;;;5132850;28;20202;-88
2023/01/15 15:55:16;;;;;;;2.05;1.00;;;;;;;;;;5133449;27;20271;-88
2023/01/15 15:57:50;;;;;;;0.77;0.77;;;;;;;;;;5133467;28;20689;-87
2023/01/15 16:00:21;;;;;;;1.25;1.10;;;;;;;;;;5153426;27;20630;-86
2023/01/15 16:02:49;;;;;;;0.98;0.82;;;;;;;;;;5157919;27;20190;-88
2023/01/15 16:05:30;;;;;;;0.95;0.90;;;;;;;;;;5157731;27;20243;-87
2023/01/15 16:08:11;;;;;;;1.30;1.17;;;;;;;;;;5157827;27;20555;-88
2023/01/15 16:10:39;;;;;;;2.67;1.25;;;;;;;;;;5158572;27;20203;-88
2023/01/15 16:13:14;;;;;;;3.10;2.22;;;;;;;;;;5158241;27;20202;-88
2023/01/15 16:15:42;;;;;;;4.40;3.97;;;;;;;;;;5156427;27;20221;-88
2023/01/15 16:18:18;;;;;;;2.38;2.17;;;;;;;;;;5156277;27;20203;-87
2023/01/15 16:20:46;;;;;;;3.55;2.28;;;;;;;;;;5156417;27;20216;-88
2023/01/15 16:23:22;;;;;;;2.30;2.03;;;;;;;;;;5156265;27;20243;-88